createdAt,value
2022-12-17T00:00:23.193Z,-10.76
2022-12-17T00:03:15.634Z,-10.53
2022-12-17T00:06:00.858Z,-10.45
2022-12-17T00:08:45.910Z,-10.68
2022-12-17T00:11:30.870Z,-10.76
2022-12-17T00:14:15.699Z,-10.58
2022-12-17T00:17:01.542Z,-10.59
2022-12-17T00:19:47.487Z,-10.76
2022-12-17T00:22:34.419Z,-10.84
2022-12-17T00:25:19.318Z,-10.41
2022-12-17T00:28:04.120Z,-10.32
2022-12-17T00:30:48.990Z,-10.28
2022-12-17T00:33:36.412Z,-10.31
2022-12-17T00:36:21.841Z,-10.31
2022-12-17T00:39:06.603Z,-10.37
2022-12-17T00:41:51.442Z,-10.44
2022-12-17T00:44:38.166Z,-10.50
2022-12-17T00:47:23.066Z,-10.48
2022-12-17T00:50:08.388Z,-10.45
2022-12-17T00:52:53.298Z,-10.36
2022-12-17T00:55:41.533Z,-10.34
2022-12-17T00:58:26.397Z,-10.34
2022-12-17T01:01:16.644Z,-10.27
2022-12-17T01:04:01.631Z,-10.20
2022-12-17T01:06:46.506Z,-10.09
2022-12-17T01:09:31.478Z,-9.93
2022-12-17T01:12:16.266Z,-9.77
2022-12-17T01:15:04.031Z,-9.50
2022-12-17T01:17:50.015Z,-9.68
2022-12-17T01:20:34.987Z,-9.78
2022-12-17T01:23:20.038Z,-9.92
2022-12-17T01:26:11.523Z,-9.61
2022-12-17T01:28:56.340Z,-9.79
2022-12-17T01:31:48.999Z,-9.99
2022-12-17T01:34:33.952Z,-9.93
2022-12-17T01:37:18.769Z,-9.94
2022-12-17T01:40:03.720Z,-9.99
2022-12-17T01:43:01.866Z,-9.89
2022-12-17T01:45:55.315Z,-9.84
2022-12-17T01:48:42.497Z,-9.37
2022-12-17T01:51:27.950Z,-9.27
2022-12-17T01:54:13.363Z,-9.26
2022-12-17T01:57:02.697Z,-9.03
2022-12-17T01:59:53.033Z,-9.25
2022-12-17T02:02:38.150Z,-9.41
2022-12-17T02:05:23.295Z,-9.39
2022-12-17T02:08:28.462Z,-9.33
2022-12-17T02:11:22.889Z,-9.22
2022-12-17T02:14:22.633Z,-9.19
2022-12-17T02:17:09.950Z,-9.22
2022-12-17T02:19:58.536Z,-9.08
2022-12-17T02:22:52.998Z,-9.02
2022-12-17T02:25:45.310Z,-8.74
2022-12-17T02:28:30.189Z,-8.82
2022-12-17T02:31:16.161Z,-8.70
2022-12-17T02:34:01.314Z,-8.50
2022-12-17T02:36:46.297Z,-8.58
2022-12-17T02:39:31.133Z,-8.41
2022-12-17T02:42:16.627Z,-8.12
2022-12-17T02:45:01.892Z,-7.92
2022-12-17T02:47:47.210Z,-7.80
2022-12-17T02:50:32.610Z,-7.78
2022-12-17T02:53:18.479Z,-7.82
2022-12-17T02:56:03.822Z,-7.73
2022-12-17T02:58:48.615Z,-7.67
2022-12-17T03:01:34.874Z,-7.62
2022-12-17T03:04:39.811Z,-7.59
2022-12-17T03:07:26.566Z,-7.53
2022-12-17T03:10:11.289Z,-7.49
2022-12-17T03:12:56.239Z,-7.47
2022-12-17T03:15:41.048Z,-7.41
2022-12-17T03:18:25.936Z,-7.36
2022-12-17T03:21:11.906Z,-7.36
2022-12-17T03:23:57.435Z,-7.35
2022-12-17T03:26:42.317Z,-7.28
2022-12-17T03:29:27.142Z,-7.23
2022-12-17T03:32:12.039Z,-7.13
2022-12-17T03:34:56.857Z,-7.08
2022-12-17T03:37:41.794Z,-7.08
2022-12-17T03:40:27.110Z,-7.06
2022-12-17T03:43:11.972Z,-7.01
2022-12-17T03:46:10.764Z,-6.99
2022-12-17T03:48:55.569Z,-6.90
2022-12-17T03:51:40.363Z,-6.83
2022-12-17T03:54:25.306Z,-6.79
2022-12-17T03:57:15.798Z,-6.72
2022-12-17T04:00:01.002Z,-6.66
2022-12-17T04:02:46.104Z,-6.61
2022-12-17T04:05:31.257Z,-6.56
2022-12-17T04:08:16.078Z,-6.49
2022-12-17T04:11:01.097Z,-6.48
2022-12-17T04:13:45.990Z,-6.50
2022-12-17T04:16:31.073Z,-6.46
2022-12-17T04:19:17.107Z,-6.37
2022-12-17T04:22:02.163Z,-6.41
2022-12-17T04:24:47.018Z,-6.63
2022-12-17T04:27:31.937Z,-6.68
2022-12-17T04:30:16.858Z,-6.49
2022-12-17T04:33:01.633Z,-6.52
2022-12-17T04:35:48.363Z,-6.63
2022-12-17T04:38:33.205Z,-6.57
2022-12-17T04:41:18.073Z,-6.82
2022-12-17T04:44:03.628Z,-6.74
2022-12-17T04:46:48.913Z,-6.60
2022-12-17T04:49:33.871Z,-6.49
2022-12-17T04:52:18.781Z,-6.41
2022-12-17T04:55:03.718Z,-6.32
2022-12-17T04:57:48.527Z,-6.28
2022-12-17T05:00:33.606Z,-6.25
2022-12-17T05:03:25.084Z,-6.27
2022-12-17T05:06:10.302Z,-6.26
2022-12-17T05:08:55.143Z,-6.30
2022-12-17T05:11:40.086Z,-6.33
2022-12-17T05:14:24.991Z,-6.30
2022-12-17T05:17:13.693Z,-6.24
2022-12-17T05:19:58.549Z,-6.12
2022-12-17T05:22:43.642Z,-6.01
2022-12-17T05:25:28.526Z,-5.95
2022-12-17T05:28:13.421Z,-5.89
2022-12-17T05:30:58.401Z,-5.88
2022-12-17T05:33:43.504Z,-5.82
2022-12-17T05:36:28.315Z,-5.75
2022-12-17T05:39:13.099Z,-5.75
2022-12-17T05:41:58.003Z,-5.81
2022-12-17T05:44:42.878Z,-5.74
2022-12-17T05:47:27.886Z,-5.71
2022-12-17T05:50:12.728Z,-5.66
2022-12-17T05:52:57.445Z,-5.57
2022-12-17T05:55:42.331Z,-5.55
2022-12-17T05:58:30.235Z,-5.51
2022-12-17T06:01:21.253Z,-5.46
2022-12-17T06:04:06.632Z,-5.44
2022-12-17T06:06:51.727Z,-5.44
2022-12-17T06:09:37.410Z,-5.42
2022-12-17T06:12:22.465Z,-5.35
2022-12-17T06:15:07.341Z,-5.31
2022-12-17T06:18:00.849Z,-5.36
2022-12-17T06:20:45.805Z,-5.46
2022-12-17T06:23:30.593Z,-5.49
2022-12-17T06:26:15.463Z,-5.37
2022-12-17T06:29:01.305Z,-5.27
2022-12-17T06:31:46.667Z,-5.16
2022-12-17T06:34:31.965Z,-5.09
2022-12-17T06:37:16.761Z,-5.04
2022-12-17T06:40:01.667Z,-4.98
2022-12-17T06:42:46.728Z,-4.88
2022-12-17T06:45:31.593Z,-4.78
2022-12-17T06:48:20.082Z,-4.80
2022-12-17T06:51:04.973Z,-4.93
2022-12-17T06:53:49.920Z,-4.96
2022-12-17T06:56:34.836Z,-4.74
2022-12-17T06:59:19.865Z,-4.81
2022-12-17T07:02:04.916Z,-4.89
2022-12-17T07:04:50.026Z,-4.88
2022-12-17T07:07:35.075Z,-4.88
2022-12-17T07:10:20.094Z,-4.88
2022-12-17T07:13:05.013Z,-4.89
2022-12-17T07:15:49.963Z,-4.86
2022-12-17T07:18:36.074Z,-4.88
2022-12-17T07:21:22.816Z,-4.87
2022-12-17T07:24:07.597Z,-4.89
2022-12-17T07:26:52.550Z,-4.85
2022-12-17T07:29:37.371Z,-4.87
2022-12-17T07:32:22.207Z,-4.88
2022-12-17T07:35:07.043Z,-4.85
2022-12-17T07:37:51.942Z,-4.82
2022-12-17T07:40:36.815Z,-4.80
2022-12-17T07:43:28.194Z,-4.77
2022-12-17T07:46:13.112Z,-4.76
2022-12-17T07:48:58.377Z,-4.73
2022-12-17T07:51:43.131Z,-4.69
2022-12-17T07:54:28.113Z,-4.68
2022-12-17T07:57:12.990Z,-4.67
2022-12-17T07:59:57.985Z,-4.64
2022-12-17T08:02:43.040Z,-4.61
2022-12-17T08:05:28.294Z,-4.55
2022-12-17T08:08:13.614Z,-4.51
2022-12-17T08:10:58.319Z,-4.41
2022-12-17T08:13:43.210Z,-4.37
2022-12-17T08:16:28.133Z,-4.31
2022-12-17T08:19:13.997Z,-4.25
2022-12-17T08:21:58.857Z,-4.18
2022-12-17T08:24:43.754Z,-4.15
2022-12-17T08:27:28.778Z,-4.09
2022-12-17T08:30:13.699Z,-4.04
2022-12-17T08:32:58.560Z,-3.99
2022-12-17T08:35:43.345Z,-3.93
2022-12-17T08:38:28.415Z,-3.88
2022-12-17T08:41:13.149Z,-3.86
2022-12-17T08:43:58.123Z,-3.83
2022-12-17T08:46:43.141Z,-3.72
2022-12-17T08:49:28.230Z,-3.76
2022-12-17T08:52:13.161Z,-3.94
2022-12-17T08:54:58.049Z,-4.02
2022-12-17T08:57:42.987Z,-3.90
2022-12-17T09:00:28.378Z,-3.89
2022-12-17T09:03:17.001Z,-4.01
2022-12-17T09:06:02.306Z,-4.02
2022-12-17T09:08:47.701Z,-4.02
2022-12-17T09:11:33.240Z,-4.02
2022-12-17T09:14:18.172Z,-4.01
2022-12-17T09:17:04.858Z,-4.00
2022-12-17T09:19:50.045Z,-4.00
2022-12-17T09:22:34.828Z,-4.00
2022-12-17T09:25:19.799Z,-3.96
2022-12-17T09:28:21.424Z,-3.96
2022-12-17T09:31:06.734Z,-3.94
2022-12-17T09:33:51.706Z,-3.92
2022-12-17T09:36:36.786Z,-3.94
2022-12-17T09:39:22.074Z,-3.91
2022-12-17T09:42:13.071Z,-3.92
2022-12-17T09:45:02.948Z,-3.89
2022-12-17T09:47:50.929Z,-3.88
2022-12-17T09:50:35.871Z,-3.86
2022-12-17T09:53:22.274Z,-3.83
2022-12-17T09:56:09.138Z,-3.82
2022-12-17T09:58:55.717Z,-3.79
2022-12-17T10:01:45.851Z,-3.79
2022-12-17T10:04:48.241Z,-3.80
2022-12-17T10:07:36.115Z,-3.80
2022-12-17T10:10:29.116Z,-3.75
2022-12-17T10:13:14.261Z,-3.73
2022-12-17T10:16:00.740Z,-3.73
2022-12-17T10:18:47.543Z,-3.72
2022-12-17T10:21:32.389Z,-3.70
2022-12-17T10:24:23.999Z,-3.68
2022-12-17T10:27:09.407Z,-3.67
2022-12-17T10:29:54.485Z,-3.65
2022-12-17T10:32:42.947Z,-3.58
2022-12-17T10:35:32.271Z,-3.53
2022-12-17T10:38:19.191Z,-3.46
2022-12-17T10:41:04.666Z,-3.42
2022-12-17T10:43:51.126Z,-3.41
2022-12-17T10:46:42.490Z,-3.35
2022-12-17T10:49:32.342Z,-3.25
2022-12-17T10:52:23.399Z,-3.24
2022-12-17T10:55:18.877Z,-3.44
2022-12-17T10:58:04.254Z,-3.48
2022-12-17T11:00:51.614Z,-3.36
2022-12-17T11:03:45.709Z,-3.37
2022-12-17T11:06:49.343Z,-3.52
2022-12-17T11:09:37.685Z,-3.50
2022-12-17T11:12:30.291Z,-3.50
2022-12-17T11:15:17.881Z,-3.51
2022-12-17T11:18:11.110Z,-3.53
2022-12-17T11:21:15.517Z,-3.53
2022-12-17T11:24:02.974Z,-3.52
2022-12-17T11:26:51.007Z,-3.52
2022-12-17T11:29:36.029Z,-3.52
2022-12-17T11:32:20.863Z,-3.53
2022-12-17T11:35:20.984Z,-3.53
2022-12-17T11:38:25.765Z,-3.51
2022-12-17T11:41:13.705Z,-3.51
2022-12-17T11:44:16.982Z,-3.50
2022-12-17T11:47:13.076Z,-3.53
2022-12-17T11:50:02.858Z,-3.54
2022-12-17T11:52:54.269Z,-3.53
2022-12-17T11:55:51.357Z,-3.53
2022-12-17T11:58:56.377Z,-3.53
2022-12-17T12:01:41.519Z,-3.54
2022-12-17T12:04:45.056Z,-3.51
2022-12-17T12:07:45.137Z,-3.46
2022-12-17T12:10:35.307Z,-3.45
2022-12-17T12:13:33.925Z,-3.43
2022-12-17T12:16:43.390Z,-3.41
2022-12-17T12:19:35.883Z,-3.38
2022-12-17T12:22:30.359Z,-3.36
2022-12-17T12:25:18.832Z,-3.32
2022-12-17T12:28:18.414Z,-3.27
2022-12-17T12:31:18.898Z,-3.21
2022-12-17T12:34:15.815Z,-3.16
2022-12-17T12:37:03.393Z,-3.08
2022-12-17T12:39:55.546Z,-3.03
2022-12-17T12:42:48.526Z,-2.97
2022-12-17T12:45:39.560Z,-2.90
2022-12-17T12:48:30.150Z,-2.80
2022-12-17T12:51:14.847Z,-2.94
2022-12-17T12:54:01.545Z,-3.09
2022-12-17T12:56:53.611Z,-3.17
2022-12-17T12:59:49.649Z,-2.91
2022-12-17T13:02:49.668Z,-3.02
2022-12-17T13:05:34.836Z,-3.11
2022-12-17T13:08:05.958Z,-3.11
2022-12-17T13:10:32.986Z,-3.11
2022-12-17T13:13:06.417Z,-3.09
2022-12-17T13:15:39.028Z,-3.10
2022-12-17T13:18:26.606Z,-3.10
2022-12-17T13:20:57.594Z,-3.11
2022-12-17T13:23:29.199Z,-3.14
2022-12-17T13:26:11.058Z,-3.14
2022-12-17T13:28:38.493Z,-3.10
2022-12-17T13:31:06.470Z,-3.09
2022-12-17T13:33:49.642Z,-3.08
2022-12-17T13:36:21.982Z,-3.08
2022-12-17T13:39:00.834Z,-3.08
2022-12-17T13:41:34.093Z,-3.06
2022-12-17T13:44:24.119Z,-3.03
2022-12-17T13:46:52.008Z,-3.01
2022-12-17T13:49:20.025Z,-2.98
2022-12-17T13:51:47.031Z,-2.96
2022-12-17T13:54:20.282Z,-2.92
2022-12-17T13:56:46.803Z,-2.90
2022-12-17T13:59:21.138Z,-2.90
2022-12-17T14:01:49.088Z,-2.84
2022-12-17T14:04:33.700Z,-2.79
2022-12-17T14:07:03.302Z,-2.72
2022-12-17T14:09:39.038Z,-2.66
2022-12-17T14:12:24.778Z,-2.60
2022-12-17T14:14:55.954Z,-2.55
2022-12-17T14:17:25.412Z,-2.50
2022-12-17T14:19:56.773Z,-2.46
2022-12-17T14:22:29.172Z,-2.45
2022-12-17T14:24:55.703Z,-2.38
2022-12-17T14:27:24.758Z,-2.33
2022-12-17T14:29:51.290Z,-2.24
2022-12-17T14:32:43.943Z,-2.15
2022-12-17T14:35:30.614Z,-2.25
2022-12-17T14:37:57.635Z,-2.45
2022-12-17T14:40:25.599Z,-2.44
2022-12-17T14:42:57.485Z,-2.27
2022-12-17T14:45:25.753Z,-2.20
2022-12-17T14:47:58.070Z,-2.27
2022-12-17T14:50:32.336Z,-2.26
2022-12-17T14:53:00.247Z,-2.20
2022-12-17T14:55:26.828Z,-2.05
2022-12-17T14:57:54.941Z,-2.12
2022-12-17T15:00:21.893Z,-2.12
2022-12-17T15:02:52.547Z,-2.10
2022-12-17T15:05:19.254Z,-2.10
2022-12-17T15:07:45.906Z,-2.07
2022-12-17T15:10:14.505Z,-2.06
2022-12-17T15:12:42.170Z,-2.04
2022-12-17T15:15:11.954Z,-2.03
2022-12-17T15:17:38.419Z,-2.01
2022-12-17T15:20:05.107Z,-1.99
2022-12-17T15:22:32.174Z,-1.96
2022-12-17T15:24:58.631Z,-1.94
2022-12-17T15:27:26.774Z,-1.91
2022-12-17T15:29:53.202Z,-1.89
2022-12-17T15:32:20.862Z,-1.86
2022-12-17T15:34:47.527Z,-1.67
2022-12-17T15:37:14.265Z,-1.73
2022-12-17T15:39:40.955Z,-1.75
2022-12-17T15:42:27.686Z,-1.75
2022-12-17T15:44:54.201Z,-1.73
2022-12-17T15:47:20.635Z,-1.71
2022-12-17T15:49:47.138Z,-1.70
2022-12-17T15:52:16.335Z,-1.71
2022-12-17T15:54:43.001Z,-1.68
2022-12-17T15:57:13.971Z,-1.67
2022-12-17T15:59:43.659Z,-1.64
2022-12-17T16:02:10.772Z,-1.50
2022-12-17T16:04:39.617Z,-1.57
2022-12-17T16:07:06.199Z,-1.57
2022-12-17T16:09:32.671Z,-1.59
2022-12-17T16:11:59.319Z,-1.59
2022-12-17T16:14:26.244Z,-1.58
2022-12-17T16:16:54.584Z,-1.57
2022-12-17T16:19:21.087Z,-1.56
2022-12-17T16:21:47.511Z,-1.52
2022-12-17T16:24:14.043Z,-1.39
2022-12-17T16:26:40.502Z,-1.36
2022-12-17T16:29:07.114Z,-1.40
2022-12-17T16:31:33.749Z,-1.36
2022-12-17T16:34:00.254Z,-1.34
2022-12-17T16:36:26.876Z,-1.30
2022-12-17T16:38:53.905Z,-1.26
2022-12-17T16:41:21.138Z,-1.24
2022-12-17T16:43:48.132Z,-1.21
2022-12-17T16:46:23.402Z,-1.17
2022-12-17T16:48:49.889Z,-1.08
2022-12-17T16:51:27.912Z,-0.98
2022-12-17T16:53:55.314Z,-0.98
2022-12-17T16:56:23.588Z,-0.96
2022-12-17T16:58:50.704Z,-0.93
2022-12-17T17:01:20.831Z,-0.87
2022-12-17T17:03:49.830Z,-0.83
2022-12-17T17:06:16.909Z,-0.77
2022-12-17T17:08:43.497Z,-0.80
2022-12-17T17:11:14.086Z,-0.85
2022-12-17T17:13:40.944Z,-0.86
2022-12-17T17:16:07.949Z,-0.79
2022-12-17T17:18:37.159Z,-0.87
2022-12-17T17:21:18.839Z,-1.05
2022-12-17T17:23:46.270Z,-1.06
2022-12-17T17:26:13.656Z,-1.07
2022-12-17T17:28:41.138Z,-0.92
2022-12-17T17:31:09.027Z,-0.89
2022-12-17T17:33:36.411Z,-1.01
2022-12-17T17:36:11.838Z,-1.06
2022-12-17T17:38:39.253Z,-1.08
2022-12-17T17:41:07.097Z,-1.07
2022-12-17T17:43:33.575Z,-1.07
2022-12-17T17:46:06.194Z,-1.05
2022-12-17T17:48:33.637Z,-1.03
2022-12-17T17:51:01.329Z,-0.93
2022-12-17T17:53:27.868Z,-0.77
2022-12-17T17:55:54.378Z,-0.88
2022-12-17T17:58:20.893Z,-0.91
2022-12-17T18:00:47.341Z,-0.95
2022-12-17T18:03:13.952Z,-0.99
2022-12-17T18:05:42.354Z,-1.07
2022-12-17T18:08:09.299Z,-1.06
2022-12-17T18:10:35.980Z,-0.88
2022-12-17T18:13:20.875Z,-0.99
2022-12-17T18:15:47.434Z,-1.02
2022-12-17T18:18:14.781Z,-0.96
2022-12-17T18:20:42.566Z,-0.95
2022-12-17T18:23:09.074Z,-0.91
2022-12-17T18:25:37.758Z,-0.88
2022-12-17T18:28:04.504Z,-0.84
2022-12-17T18:30:31.083Z,-0.68
2022-12-17T18:32:57.725Z,-0.65
2022-12-17T18:35:24.279Z,-0.67
2022-12-17T18:37:50.865Z,-0.67
2022-12-17T18:40:17.439Z,-0.71
2022-12-17T18:43:02.455Z,-0.78
2022-12-17T18:45:28.981Z,-0.71
2022-12-17T18:47:55.514Z,-0.64
2022-12-17T18:50:21.970Z,-0.68
2022-12-17T18:52:48.506Z,-0.62
2022-12-17T18:55:15.037Z,-0.56
2022-12-17T18:57:41.471Z,-0.49
2022-12-17T19:00:08.570Z,-0.42
2022-12-17T19:02:35.185Z,-0.27
2022-12-17T19:05:02.096Z,-0.22
2022-12-17T19:07:28.583Z,-0.18
2022-12-17T19:09:55.066Z,-0.15
2022-12-17T19:12:21.549Z,-0.12
2022-12-17T19:14:48.005Z,-0.04
2022-12-17T19:17:15.239Z,0.04
2022-12-17T19:19:42.345Z,0.10
2022-12-17T19:22:08.843Z,0.15
2022-12-17T19:24:35.281Z,0.18
2022-12-17T19:27:01.737Z,0.17
2022-12-17T19:29:28.163Z,0.02
2022-12-17T19:31:54.779Z,-0.08
2022-12-17T19:34:21.338Z,-0.01
2022-12-17T19:36:47.968Z,0.19
2022-12-17T19:39:15.598Z,0.13
2022-12-17T19:41:42.102Z,0.06
2022-12-17T19:44:11.091Z,0.16
2022-12-17T19:46:37.831Z,0.29
2022-12-17T19:49:04.733Z,0.16
2022-12-17T19:51:31.963Z,0.12
2022-12-17T19:54:03.223Z,0.15
2022-12-17T19:56:34.588Z,0.22
2022-12-17T19:59:02.178Z,0.40
2022-12-17T20:01:30.122Z,0.54
2022-12-17T20:03:56.800Z,0.48
2022-12-17T20:06:25.066Z,0.46
2022-12-17T20:08:51.647Z,0.47
2022-12-17T20:11:34.079Z,0.55
2022-12-17T20:14:23.694Z,0.65
2022-12-17T20:16:52.646Z,0.59
2022-12-17T20:19:20.883Z,0.57
2022-12-17T20:21:47.843Z,0.56
2022-12-17T20:24:14.610Z,0.58
2022-12-17T20:26:41.917Z,0.59
2022-12-17T20:29:09.041Z,0.60
2022-12-17T20:31:36.169Z,0.62
2022-12-17T20:34:03.914Z,0.63
2022-12-17T20:36:30.694Z,0.66
2022-12-17T20:38:57.448Z,0.67
2022-12-17T20:41:25.216Z,0.67
2022-12-17T20:43:52.211Z,0.81
2022-12-17T20:46:19.325Z,0.85
2022-12-17T20:48:45.993Z,0.82
2022-12-17T20:51:14.027Z,0.79
2022-12-17T20:53:40.482Z,0.82
2022-12-17T20:56:11.166Z,0.82
2022-12-17T20:58:38.559Z,0.84
2022-12-17T21:01:09.779Z,0.81
2022-12-17T21:03:36.862Z,0.85
2022-12-17T21:06:15.438Z,0.88
2022-12-17T21:08:49.164Z,1.02
2022-12-17T21:11:20.786Z,1.01
2022-12-17T21:13:47.296Z,0.96
2022-12-17T21:16:18.808Z,0.93
2022-12-17T21:18:46.277Z,0.91
2022-12-17T21:21:14.605Z,0.93
2022-12-17T21:23:41.107Z,0.92
2022-12-17T21:26:10.534Z,0.96
2022-12-17T21:28:38.140Z,0.93
2022-12-17T21:31:07.160Z,1.03
2022-12-17T21:33:33.672Z,1.15
2022-12-17T21:36:05.884Z,1.09
2022-12-17T21:38:34.272Z,1.03
2022-12-17T21:41:08.105Z,1.06
2022-12-17T21:43:36.839Z,1.04
2022-12-17T21:46:04.205Z,1.06
2022-12-17T21:48:32.527Z,1.07
2022-12-17T21:51:05.615Z,1.07
2022-12-17T21:53:35.102Z,1.19
2022-12-17T21:56:24.107Z,1.19
2022-12-17T21:58:55.201Z,1.13
2022-12-17T22:01:23.299Z,1.13
2022-12-17T22:03:53.912Z,1.11
2022-12-17T22:06:21.934Z,1.14
2022-12-17T22:08:49.855Z,1.12
2022-12-17T22:11:24.853Z,1.14
2022-12-17T22:14:17.005Z,1.28
2022-12-17T22:16:49.886Z,1.23
2022-12-17T22:19:22.494Z,1.21
2022-12-17T22:21:49.937Z,1.20
2022-12-17T22:24:19.485Z,1.18
2022-12-17T22:26:47.925Z,1.21
2022-12-17T22:29:39.615Z,1.18
2022-12-17T22:32:27.843Z,1.18
2022-12-17T22:35:37.382Z,1.37
2022-12-17T22:39:33.072Z,1.31
2022-12-17T22:44:35.173Z,1.28
2022-12-17T22:44:45.327Z,1.25
2022-12-17T22:46:16.625Z,1.25
2022-12-17T22:48:43.216Z,1.26
2022-12-17T22:51:10.850Z,1.26
2022-12-17T22:53:38.590Z,1.38
2022-12-17T22:56:16.096Z,1.39
2022-12-17T22:58:52.704Z,1.35
2022-12-17T23:01:22.912Z,1.32
2022-12-17T23:03:50.098Z,1.31
2022-12-17T23:06:19.531Z,1.31
2022-12-17T23:08:45.990Z,1.31
2022-12-17T23:11:14.254Z,1.39
2022-12-17T23:13:41.362Z,1.50
2022-12-17T23:16:09.758Z,1.44
2022-12-17T23:18:37.141Z,1.37
2022-12-17T23:21:10.780Z,1.40
2022-12-17T23:23:37.838Z,1.38
2022-12-17T23:26:15.791Z,1.39
2022-12-17T23:28:42.671Z,1.35
2022-12-17T23:31:11.952Z,1.40
2022-12-17T23:33:38.871Z,1.55
2022-12-17T23:36:09.111Z,1.54
2022-12-17T23:38:35.732Z,1.46
2022-12-17T23:41:06.631Z,1.45
2022-12-17T23:43:33.221Z,1.43
2022-12-17T23:45:59.938Z,1.42
2022-12-17T23:48:33.958Z,1.43
2022-12-17T23:51:01.048Z,1.48
2022-12-17T23:53:28.321Z,1.60
2022-12-17T23:55:54.857Z,1.53
2022-12-17T23:58:22.062Z,1.49
